Time;durP1;ratioP1;P1;durP2;ratioP2;P2;SDS_P1;SDS_P2;PMS_P1;PMS_P2;Temp;Humidity;BMP_temperature;BMP_pressure;BME280_temperature;BME280_humidity;BME280_pressure;Samples;Min_cycle;Max_cycle;Signal;HPM_P1;HPM_P2
2023/04/20 00:01:51;;;;;;;;;11.25;9.25;;;;;;;;5102691;27;61736;-74
2023/04/20 00:04:17;;;;;;;;;8.25;7.75;;;;;;;;5105365;27;61697;-72
2023/04/20 00:06:43;;;;;;;;;11.50;8.00;;;;;;;;5104701;27;61754;-73
2023/04/20 00:09:09;;;;;;;;;10.50;9.75;;;;;;;;5103766;27;61839;-73
2023/04/20 00:11:35;;;;;;;;;8.50;7.00;;;;;;;;5103248;27;61791;-74
2023/04/20 00:14:00;;;;;;;;;13.25;8.75;;;;;;;;5105069;27;62070;-73
2023/04/20 00:16:25;;;;;;;;;5.50;5.50;;;;;;;;5101870;27;63411;-72
2023/04/20 00:18:51;;;;;;;;;7.75;5.00;;;;;;;;5104779;27;62154;-73
2023/04/20 00:21:16;;;;;;;;;11.00;8.75;;;;;;;;5102878;27;61827;-73
2023/04/20 00:23:41;;;;;;;;;7.25;7.25;;;;;;;;5104891;27;61762;-73
2023/04/20 00:26:07;;;;;;;;;10.00;10.00;;;;;;;;5103965;27;61920;-72
2023/04/20 00:28:32;;;;;;;;;11.75;10.75;;;;;;;;5104951;27;62099;-73
2023/04/20 00:30:57;;;;;;;;;12.75;11.50;;;;;;;;5104280;27;61955;-72
2023/04/20 00:33:22;;;;;;;;;16.75;11.75;;;;;;;;5116734;27;61981;-73
2023/04/20 00:35:48;;;;;;;;;9.00;5.25;;;;;;;;5106784;27;63531;-72
2023/04/20 00:38:13;;;;;;;;;10.50;8.50;;;;;;;;5125247;27;61866;-72
2023/04/20 00:40:38;;;;;;;;;11.25;7.50;;;;;;;;5125488;27;62042;-72
2023/04/20 00:43:10;;;;;;;;;7.00;6.25;;;;;;;;5108600;27;61774;-73
2023/04/20 00:45:35;;;;;;;;;10.25;9.75;;;;;;;;5101678;27;61669;-72
2023/04/20 00:48:00;;;;;;;;;15.50;9.00;;;;;;;;5102566;27;61934;-74
2023/04/20 00:50:26;;;;;;;;;11.50;9.50;;;;;;;;5103063;27;62635;-73
2023/04/20 00:52:51;;;;;;;;;9.75;8.00;;;;;;;;5102876;27;62057;-73
2023/04/20 00:55:16;;;;;;;;;6.00;6.00;;;;;;;;5103417;27;62752;-72
2023/04/20 00:57:42;;;;;;;;;10.00;5.75;;;;;;;;5104466;27;61823;-73
2023/04/20 01:00:09;;;;;;;;;10.00;8.00;;;;;;;;5103917;27;61853;-72
2023/04/20 01:02:34;;;;;;;;;8.50;5.50;;;;;;;;5103065;27;61901;-73
2023/04/20 01:05:00;;;;;;;;;25.00;17.75;;;;;;;;5103128;27;61904;-72
2023/04/20 01:07:25;;;;;;;;;11.50;10.00;;;;;;;;5104168;27;61767;-73
2023/04/20 01:09:51;;;;;;;;;13.00;11.00;;;;;;;;5104427;27;61889;-72
2023/04/20 01:12:16;;;;;;;;;9.50;8.00;;;;;;;;5103466;27;62096;-73
2023/04/20 01:14:41;;;;;;;;;12.25;10.00;;;;;;;;5102216;27;62939;-72
2023/04/20 01:17:07;;;;;;;;;13.50;12.75;;;;;;;;5103926;27;61731;-73
2023/04/20 01:19:32;;;;;;;;;11.25;11.25;;;;;;;;5103911;27;61805;-72
2023/04/20 01:21:57;;;;;;;;;14.00;11.75;;;;;;;;5103804;27;61699;-73
2023/04/20 01:24:23;;;;;;;;;12.00;10.25;;;;;;;;5103279;27;62631;-73
2023/04/20 01:26:48;;;;;;;;;17.00;14.25;;;;;;;;5103624;27;61767;-73
2023/04/20 01:29:13;;;;;;;;;20.75;16.00;;;;;;;;5103107;27;61850;-72
2023/04/20 01:31:38;;;;;;;;;14.00;11.75;;;;;;;;5103745;27;61620;-73
2023/04/20 01:34:04;;;;;;;;;12.75;8.25;;;;;;;;5112558;27;62641;-72
2023/04/20 01:36:29;;;;;;;;;10.00;7.25;;;;;;;;5124025;27;61863;-73
2023/04/20 01:38:55;;;;;;;;;12.00;9.25;;;;;;;;5123221;27;61760;-73
2023/04/20 01:41:20;;;;;;;;;13.00;10.25;;;;;;;;5122703;27;61707;-73
2023/04/20 01:43:45;;;;;;;;;13.25;9.25;;;;;;;;5122880;27;62363;-73
2023/04/20 01:46:11;;;;;;;;;10.25;8.75;;;;;;;;5122061;27;61781;-73
2023/04/20 01:48:36;;;;;;;;;9.00;9.00;;;;;;;;5124353;27;61770;-72
2023/04/20 01:51:01;;;;;;;;;11.00;10.00;;;;;;;;5122985;27;61841;-73
2023/04/20 01:53:27;;;;;;;;;15.75;11.50;;;;;;;;5123284;27;62570;-73
2023/04/20 01:55:52;;;;;;;;;16.25;11.25;;;;;;;;5122584;27;61805;-73
2023/04/20 01:58:17;;;;;;;;;16.25;10.25;;;;;;;;5123227;27;61754;-73
2023/04/20 02:00:43;;;;;;;;;10.00;8.75;;;;;;;;5124394;27;61823;-73
2023/04/20 02:03:08;;;;;;;;;12.25;11.25;;;;;;;;5115867;27;61895;-73
2023/04/20 02:05:33;;;;;;;;;19.75;12.50;;;;;;;;5104822;27;62078;-72
2023/04/20 02:07:58;;;;;;;;;20.00;14.00;;;;;;;;5103354;27;61749;-72
2023/04/20 02:10:24;;;;;;;;;17.75;13.50;;;;;;;;5103457;27;62051;-72
2023/04/20 02:12:49;;;;;;;;;9.00;6.75;;;;;;;;5101573;27;62523;-73
2023/04/20 02:15:15;;;;;;;;;17.25;12.75;;;;;;;;5102295;27;62019;-72
2023/04/20 02:17:41;;;;;;;;;10.50;8.50;;;;;;;;5103212;27;61909;-72
2023/04/20 02:20:08;;;;;;;;;16.75;11.75;;;;;;;;5103145;27;61826;-72
2023/04/20 02:22:33;;;;;;;;;15.75;13.00;;;;;;;;5102302;27;61974;-72
2023/04/20 02:25:00;;;;;;;;;15.00;10.75;;;;;;;;5103033;27;62534;-72
2023/04/20 02:27:27;;;;;;;;;15.00;13.75;;;;;;;;5100707;27;61988;-73
2023/04/20 02:29:52;;;;;;;;;24.50;19.00;;;;;;;;5103234;27;61871;-73
2023/04/20 02:32:17;;;;;;;;;24.50;18.00;;;;;;;;5100232;27;63398;-72
2023/04/20 02:34:42;;;;;;;;;20.25;17.00;;;;;;;;5102798;27;62107;-72
2023/04/20 02:37:08;;;;;;;;;14.75;11.50;;;;;;;;5102923;27;61794;-72
2023/04/20 02:39:33;;;;;;;;;15.25;10.50;;;;;;;;5101243;27;61867;-72
2023/04/20 02:41:58;;;;;;;;;13.50;11.00;;;;;;;;5101365;27;62737;-72
2023/04/20 02:44:23;;;;;;;;;8.25;6.00;;;;;;;;5102507;27;61876;-72
2023/04/20 02:46:49;;;;;;;;;7.50;7.50;;;;;;;;5102400;27;61679;-72
2023/04/20 02:49:14;;;;;;;;;6.25;6.00;;;;;;;;5102895;27;61943;-72
2023/04/20 02:51:39;;;;;;;;;7.25;7.25;;;;;;;;5101830;27;61766;-73
2023/04/20 02:54:05;;;;;;;;;6.00;6.00;;;;;;;;5102604;27;62390;-72
2023/04/20 02:56:30;;;;;;;;;8.25;5.75;;;;;;;;5102010;27;61847;-73
2023/04/20 02:58:55;;;;;;;;;7.75;6.00;;;;;;;;5101153;27;61978;-72
2023/04/20 03:01:21;;;;;;;;;8.00;6.00;;;;;;;;5101826;27;61944;-72
2023/04/20 03:03:46;;;;;;;;;9.00;6.00;;;;;;;;5102140;27;61778;-72
2023/04/20 03:06:11;;;;;;;;;7.00;5.50;;;;;;;;5102947;27;62039;-72
2023/04/20 03:08:36;;;;;;;;;7.00;5.25;;;;;;;;5105947;27;61806;-72
2023/04/20 03:11:02;;;;;;;;;6.25;4.75;;;;;;;;5105151;27;61877;-72
2023/04/20 03:13:27;;;;;;;;;4.50;4.50;;;;;;;;5104021;27;61739;-72
2023/04/20 03:15:52;;;;;;;;;7.75;7.00;;;;;;;;5105308;27;61795;-71
2023/04/20 03:18:17;;;;;;;;;8.75;7.25;;;;;;;;5106240;27;62216;-72
2023/04/20 03:20:43;;;;;;;;;3.25;1.50;;;;;;;;5104790;27;61697;-72
2023/04/20 03:23:09;;;;;;;;;7.25;6.00;;;;;;;;5105992;27;61885;-71
2023/04/20 03:25:34;;;;;;;;;7.75;6.25;;;;;;;;5105381;27;62020;-71
2023/04/20 03:27:59;;;;;;;;;9.50;6.00;;;;;;;;5105238;27;61892;-72
2023/04/20 03:30:24;;;;;;;;;7.50;7.50;;;;;;;;5104971;27;61897;-71
2023/04/20 03:32:50;;;;;;;;;7.50;4.75;;;;;;;;5105126;27;61815;-72
2023/04/20 03:35:16;;;;;;;;;7.25;7.25;;;;;;;;5105720;27;61968;-72
2023/04/20 03:37:41;;;;;;;;;10.25;7.00;;;;;;;;5105666;27;61805;-72
2023/04/20 03:40:07;;;;;;;;;8.75;4.75;;;;;;;;5102972;27;62797;-71
2023/04/20 03:42:32;;;;;;;;;7.00;7.00;;;;;;;;5105071;27;61777;-71
2023/04/20 03:44:58;;;;;;;;;10.00;4.25;;;;;;;;5103432;27;62031;-72
2023/04/20 03:47:23;;;;;;;;;9.50;7.00;;;;;;;;5104268;27;61858;-72
2023/04/20 03:49:48;;;;;;;;;9.50;5.75;;;;;;;;5104701;27;61800;-71
2023/04/20 03:52:13;;;;;;;;;7.75;6.00;;;;;;;;5103934;27;61971;-71
2023/04/20 03:54:39;;;;;;;;;4.75;4.75;;;;;;;;5104842;27;61766;-72
2023/04/20 03:57:05;;;;;;;;;7.25;5.00;;;;;;;;5104398;27;61916;-72
2023/04/20 03:59:30;;;;;;;;;5.75;4.00;;;;;;;;5104548;27;61714;-72
2023/04/20 04:01:55;;;;;;;;;4.00;3.75;;;;;;;;5104653;27;61869;-72
2023/04/20 04:04:21;;;;;;;;;12.25;8.00;;;;;;;;5105048;27;61937;-72
2023/04/20 04:06:46;;;;;;;;;4.75;4.75;;;;;;;;5105001;27;61762;-72
2023/04/20 04:09:11;;;;;;;;;4.00;4.00;;;;;;;;5104365;27;61878;-72
2023/04/20 04:11:37;;;;;;;;;6.00;5.00;;;;;;;;5103474;27;62095;-72
2023/04/20 04:14:04;;;;;;;;;8.50;5.25;;;;;;;;5104815;27;61707;-71
2023/04/20 04:16:29;;;;;;;;;7.00;7.00;;;;;;;;5103215;27;61881;-71
2023/04/20 04:18:55;;;;;;;;;3.25;3.25;;;;;;;;5102963;27;61758;-72
2023/04/20 04:21:20;;;;;;;;;4.25;3.00;;;;;;;;5103271;27;62076;-71
2023/04/20 04:23:46;;;;;;;;;4.50;3.25;;;;;;;;5104060;27;61891;-72
2023/04/20 04:26:11;;;;;;;;;4.25;4.25;;;;;;;;5105094;27;62089;-72
2023/04/20 04:28:37;;;;;;;;;10.25;7.75;;;;;;;;5097095;27;63877;-72
2023/04/20 04:31:05;;;;;;;;;6.00;6.00;;;;;;;;5104855;27;61827;-71
2023/04/20 04:33:33;;;;;;;;;8.50;4.00;;;;;;;;5124200;27;61881;-71
2023/04/20 04:35:59;;;;;;;;;6.75;5.00;;;;;;;;5104457;27;61666;-72
2023/04/20 04:38:28;;;;;;;;;7.25;3.25;;;;;;;;5103686;27;61720;-71
2023/04/20 04:40:55;;;;;;;;;6.50;4.50;;;;;;;;5104110;27;61892;-71
2023/04/20 04:43:20;;;;;;;;;6.25;6.25;;;;;;;;5102400;27;61842;-71
2023/04/20 04:45:46;;;;;;;;;8.00;5.25;;;;;;;;5102058;27;61805;-72
2023/04/20 04:48:11;;;;;;;;;6.75;5.25;;;;;;;;5117484;27;62465;-72
2023/04/20 04:50:37;;;;;;;;;5.50;4.25;;;;;;;;5123281;27;61903;-72
2023/04/20 04:53:03;;;;;;;;;6.75;4.25;;;;;;;;5095331;27;61899;-72
2023/04/20 04:55:28;;;;;;;;;7.25;3.50;;;;;;;;5082939;28;61987;-72
2023/04/20 04:57:53;;;;;;;;;7.00;6.75;;;;;;;;5098536;27;62945;-72
2023/04/20 05:00:19;;;;;;;;;10.00;8.00;;;;;;;;5083651;27;61713;-72
2023/04/20 05:02:44;;;;;;;;;7.25;6.00;;;;;;;;5092141;27;61715;-72
2023/04/20 05:05:09;;;;;;;;;7.50;6.00;;;;;;;;5103652;27;61798;-72
2023/04/20 05:07:35;;;;;;;;;8.25;6.00;;;;;;;;5102929;27;62066;-72
2023/04/20 05:10:00;;;;;;;;;7.50;6.00;;;;;;;;5098748;27;61725;-75
2023/04/20 05:12:25;;;;;;;;;2.00;1.00;;;;;;;;5083754;27;61851;-74
2023/04/20 05:14:51;;;;;;;;;7.00;5.00;;;;;;;;5089380;27;61795;-76
2023/04/20 05:17:17;;;;;;;;;5.00;5.00;;;;;;;;5101909;27;62844;-76
2023/04/20 05:19:42;;;;;;;;;7.75;4.00;;;;;;;;5103501;27;62091;-76
2023/04/20 05:22:07;;;;;;;;;7.75;5.75;;;;;;;;5102349;27;61814;-76
2023/04/20 05:24:33;;;;;;;;;4.25;4.25;;;;;;;;5103191;27;62067;-77
2023/04/20 05:26:58;;;;;;;;;3.75;3.25;;;;;;;;5121770;27;63800;-74
2023/04/20 05:29:23;;;;;;;;;9.50;5.50;;;;;;;;5113093;27;62111;-79
2023/04/20 05:31:49;;;;;;;;;9.25;7.25;;;;;;;;5103831;27;61781;-75
2023/04/20 05:34:16;;;;;;;;;8.25;5.50;;;;;;;;5101744;27;61818;-80
2023/04/20 05:36:41;;;;;;;;;6.25;4.75;;;;;;;;5102214;27;61946;-72
2023/04/20 05:39:06;;;;;;;;;8.25;6.00;;;;;;;;5104915;27;61967;-72
2023/04/20 05:41:31;;;;;;;;;8.00;5.25;;;;;;;;5101839;27;62077;-77
2023/04/20 05:43:57;;;;;;;;;8.00;6.50;;;;;;;;5104082;27;61984;-78
2023/04/20 05:46:22;;;;;;;;;10.00;5.25;;;;;;;;5099813;27;64781;-77
2023/04/20 05:48:48;;;;;;;;;7.00;4.50;;;;;;;;5102778;27;61885;-77
2023/04/20 05:51:14;;;;;;;;;7.00;7.00;;;;;;;;5101880;27;61888;-77
2023/04/20 05:53:40;;;;;;;;;5.50;3.00;;;;;;;;5102962;27;61717;-81
2023/04/20 05:56:05;;;;;;;;;8.50;5.00;;;;;;;;5100516;27;62738;-76
2023/04/20 05:58:31;;;;;;;;;6.50;5.50;;;;;;;;5103109;27;62017;-76
2023/04/20 06:00:56;;;;;;;;;9.00;7.00;;;;;;;;5100099;27;62527;-76
2023/04/20 06:03:22;;;;;;;;;9.75;7.25;;;;;;;;5101643;27;61877;-75
2023/04/20 06:05:47;;;;;;;;;12.00;7.00;;;;;;;;5097476;27;62168;-78
2023/04/20 06:08:12;;;;;;;;;10.00;8.50;;;;;;;;5082124;27;61708;-74
2023/04/20 06:10:38;;;;;;;;;5.50;1.75;;;;;;;;5103029;27;61750;-74
2023/04/20 06:13:03;;;;;;;;;5.75;4.00;;;;;;;;5102912;27;61947;-75
2023/04/20 06:15:28;;;;;;;;;6.00;6.00;;;;;;;;5099936;27;62903;-75
2023/04/20 06:17:53;;;;;;;;;10.25;6.50;;;;;;;;5097573;27;61786;-75
2023/04/20 06:20:19;;;;;;;;;6.25;4.50;;;;;;;;5098166;27;61693;-75
2023/04/20 06:22:44;;;;;;;;;3.75;3.75;;;;;;;;5101487;27;62202;-75
2023/04/20 06:25:10;;;;;;;;;7.00;7.00;;;;;;;;5100405;27;63344;-75
2023/04/20 06:27:35;;;;;;;;;7.50;5.75;;;;;;;;5099251;27;62171;-75
2023/04/20 06:30:00;;;;;;;;;9.00;5.25;;;;;;;;5103648;27;61959;-72
2023/04/20 06:32:26;;;;;;;;;7.25;5.00;;;;;;;;5112122;27;61764;-73
2023/04/20 06:34:51;;;;;;;;;8.00;6.00;;;;;;;;5101428;27;62219;-73
2023/04/20 06:37:17;;;;;;;;;3.25;3.00;;;;;;;;5123490;27;61876;-71
2023/04/20 06:39:42;;;;;;;;;10.00;8.25;;;;;;;;5120018;27;61730;-72
2023/04/20 06:42:07;;;;;;;;;9.75;6.00;;;;;;;;5110581;27;61781;-72
2023/04/20 06:44:32;;;;;;;;;7.25;5.25;;;;;;;;5099779;27;63056;-71
2023/04/20 06:46:58;;;;;;;;;13.75;7.00;;;;;;;;5100877;27;61790;-72
2023/04/20 06:49:23;;;;;;;;;8.75;8.00;;;;;;;;5101187;27;61972;-73
2023/04/20 06:51:49;;;;;;;;;5.75;5.75;;;;;;;;5107839;27;61727;-72
2023/04/20 06:54:14;;;;;;;;;9.50;8.50;;;;;;;;5108438;27;61779;-72
2023/04/20 06:56:40;;;;;;;;;7.50;7.00;;;;;;;;5108910;27;62132;-72
2023/04/20 06:59:05;;;;;;;;;10.75;8.00;;;;;;;;5111695;27;61932;-72
2023/04/20 07:01:30;;;;;;;;;8.25;7.00;;;;;;;;5095435;27;62103;-72
2023/04/20 07:03:55;;;;;;;;;8.25;7.25;;;;;;;;5089815;27;61870;-72
2023/04/20 07:06:21;;;;;;;;;8.00;6.00;;;;;;;;5092571;27;61977;-72
2023/04/20 07:08:46;;;;;;;;;9.75;8.50;;;;;;;;5087721;27;61904;-72
2023/04/20 07:11:11;;;;;;;;;10.25;9.50;;;;;;;;5092268;27;61649;-72
2023/04/20 07:13:37;;;;;;;;;11.25;7.00;;;;;;;;5097731;27;62615;-72
2023/04/20 07:16:02;;;;;;;;;11.75;8.75;;;;;;;;5112461;27;61873;-72
2023/04/20 07:18:27;;;;;;;;;8.00;6.00;;;;;;;;5101724;27;62244;-72
2023/04/20 07:20:53;;;;;;;;;8.25;6.75;;;;;;;;5099833;27;61904;-72
2023/04/20 07:23:19;;;;;;;;;8.00;8.00;;;;;;;;5101303;27;62758;-72
2023/04/20 07:25:44;;;;;;;;;6.25;5.25;;;;;;;;5101710;27;61844;-72
2023/04/20 07:28:09;;;;;;;;;10.50;8.00;;;;;;;;5101873;27;61950;-72
2023/04/20 07:30:34;;;;;;;;;9.75;8.00;;;;;;;;5102271;27;61672;-72
2023/04/20 07:33:00;;;;;;;;;7.75;7.00;;;;;;;;5118025;27;62250;-72
2023/04/20 07:35:25;;;;;;;;;15.00;9.75;;;;;;;;5122800;27;61756;-72
2023/04/20 07:37:50;;;;;;;;;14.25;8.00;;;;;;;;5121062;27;61762;-72
2023/04/20 07:40:15;;;;;;;;;10.75;8.50;;;;;;;;5114794;27;61741;-72
2023/04/20 07:42:41;;;;;;;;;9.25;8.00;;;;;;;;5100790;27;61971;-72
2023/04/20 07:45:07;;;;;;;;;8.50;8.25;;;;;;;;5101184;27;61890;-72
2023/04/20 07:47:33;;;;;;;;;8.50;7.50;;;;;;;;5100746;27;61896;-72
2023/04/20 07:49:58;;;;;;;;;10.75;9.00;;;;;;;;5096964;27;61976;-72
2023/04/20 07:52:24;;;;;;;;;9.00;7.50;;;;;;;;5097096;27;62824;-72
2023/04/20 07:54:52;;;;;;;;;9.00;8.00;;;;;;;;5084807;28;61718;-72
2023/04/20 07:57:17;;;;;;;;;6.75;6.50;;;;;;;;5089914;27;61882;-72
2023/04/20 07:59:44;;;;;;;;;9.00;9.00;;;;;;;;5126199;27;61683;-72
2023/04/20 08:02:09;;;;;;;;;10.00;9.25;;;;;;;;5114283;27;61788;-72
2023/04/20 08:04:36;;;;;;;;;16.75;9.75;;;;;;;;5103224;27;61755;-72
2023/04/20 08:07:01;;;;;;;;;9.25;9.25;;;;;;;;5105284;27;61750;-71
2023/04/20 08:09:27;;;;;;;;;8.50;7.25;;;;;;;;5105643;27;62040;-72
2023/04/20 08:11:52;;;;;;;;;10.50;7.00;;;;;;;;5102566;27;63722;-72
2023/04/20 08:14:17;;;;;;;;;13.50;8.25;;;;;;;;5103305;27;62090;-72
2023/04/20 08:16:43;;;;;;;;;10.25;7.50;;;;;;;;5102522;27;61795;-72
2023/04/20 08:19:11;;;;;;;;;8.50;8.25;;;;;;;;5104900;27;61980;-72
2023/04/20 08:21:39;;;;;;;;;9.25;7.00;;;;;;;;5104358;27;61881;-72
2023/04/20 08:24:05;;;;;;;;;9.00;8.00;;;;;;;;5104639;27;61739;-72
2023/04/20 08:26:31;;;;;;;;;11.75;9.50;;;;;;;;5103467;27;61857;-72
2023/04/20 08:28:56;;;;;;;;;8.50;8.25;;;;;;;;5092364;27;61961;-72
2023/04/20 08:31:21;;;;;;;;;15.00;10.75;;;;;;;;5083402;28;63124;-72
2023/04/20 08:33:47;;;;;;;;;15.00;9.00;;;;;;;;5114820;27;61925;-72
2023/04/20 08:36:12;;;;;;;;;10.00;8.75;;;;;;;;5123726;27;61765;-72
2023/04/20 08:38:37;;;;;;;;;11.25;6.25;;;;;;;;5125660;27;61842;-73
2023/04/20 08:41:02;;;;;;;;;9.00;8.75;;;;;;;;5123150;27;64620;-73
2023/04/20 08:43:28;;;;;;;;;13.50;8.00;;;;;;;;5123448;27;62064;-72
2023/04/20 08:45:56;;;;;;;;;11.25;9.50;;;;;;;;5100195;27;61993;-72
2023/04/20 08:48:23;;;;;;;;;12.25;9.25;;;;;;;;5117168;27;61917;-72
2023/04/20 08:50:49;;;;;;;;;12.50;9.00;;;;;;;;5083460;27;61750;-72
2023/04/20 08:53:14;;;;;;;;;12.50;10.25;;;;;;;;5116556;27;62031;-73
2023/04/20 08:55:39;;;;;;;;;13.50;10.75;;;;;;;;5084042;27;62386;-72
2023/04/20 08:58:05;;;;;;;;;11.50;8.00;;;;;;;;5083640;27;61670;-72
2023/04/20 09:00:30;;;;;;;;;5.75;5.75;;;;;;;;5082844;27;61761;-72
2023/04/20 09:02:57;;;;;;;;;11.75;8.50;;;;;;;;5084853;27;61979;-72
2023/04/20 09:05:27;;;;;;;;;9.75;9.00;;;;;;;;5101769;27;61885;-72
2023/04/20 09:07:55;;;;;;;;;12.50;10.25;;;;;;;;5104230;27;62068;-72
2023/04/20 09:10:22;;;;;;;;;9.75;8.25;;;;;;;;5103522;27;61821;-72
2023/04/20 09:12:48;;;;;;;;;9.50;9.00;;;;;;;;5101996;27;61932;-72
2023/04/20 09:15:23;;;;;;;;;8.75;8.75;;;;;;;;5100643;27;61928;-72
2023/04/20 09:17:48;;;;;;;;;11.50;7.00;;;;;;;;5085028;27;62040;-72
2023/04/20 09:20:13;;;;;;;;;9.00;9.00;;;;;;;;5082386;28;61992;-73
2023/04/20 09:22:39;;;;;;;;;9.50;8.00;;;;;;;;5083632;28;61884;-72
2023/04/20 09:25:15;;;;;;;;;10.50;9.50;;;;;;;;5083813;27;61876;-72
2023/04/20 09:27:40;;;;;;;;;8.25;6.25;;;;;;;;5083039;27;62110;-72
2023/04/20 09:30:06;;;;;;;;;9.25;9.25;;;;;;;;5081454;28;63666;-72
2023/04/20 09:32:32;;;;;;;;;7.25;6.00;;;;;;;;5092997;27;61922;-73
2023/04/20 09:34:57;;;;;;;;;13.25;9.00;;;;;;;;5104022;27;61781;-72
2023/04/20 09:37:24;;;;;;;;;6.50;6.00;;;;;;;;5103477;27;61926;-72
2023/04/20 09:39:49;;;;;;;;;9.00;7.25;;;;;;;;5101850;27;62766;-72
2023/04/20 09:42:15;;;;;;;;;6.00;6.00;;;;;;;;5102631;27;61740;-73
2023/04/20 09:44:40;;;;;;;;;9.50;6.75;;;;;;;;5101468;27;61897;-72
2023/04/20 09:47:06;;;;;;;;;10.00;7.75;;;;;;;;5103898;27;61748;-72
2023/04/20 09:49:32;;;;;;;;;6.75;5.00;;;;;;;;5102970;27;61969;-72
2023/04/20 09:52:00;;;;;;;;;9.00;8.00;;;;;;;;5103694;27;61783;-71
2023/04/20 09:54:26;;;;;;;;;17.25;11.25;;;;;;;;5103078;27;61864;-71
2023/04/20 09:56:52;;;;;;;;;12.50;8.00;;;;;;;;5101751;27;61891;-72
2023/04/20 09:59:18;;;;;;;;;9.25;6.00;;;;;;;;5101022;27;63533;-72
2023/04/20 10:01:43;;;;;;;;;13.25;9.00;;;;;;;;5100181;27;61759;-71
2023/04/20 10:04:09;;;;;;;;;9.00;9.00;;;;;;;;5094014;27;61959;-72
2023/04/20 10:06:35;;;;;;;;;12.25;10.00;;;;;;;;5101856;27;62230;-72
2023/04/20 10:09:01;;;;;;;;;11.75;9.75;;;;;;;;5102688;27;62702;-72
2023/04/20 10:11:27;;;;;;;;;7.50;7.50;;;;;;;;5102719;27;61955;-73
2023/04/20 10:13:53;;;;;;;;;9.00;9.00;;;;;;;;5103202;27;61796;-72
2023/04/20 10:16:19;;;;;;;;;6.25;6.25;;;;;;;;5101519;27;61703;-73
2023/04/20 10:19:11;;;;;;;;;10.75;7.75;;;;;;;;5102626;27;61822;-72
2023/04/20 10:21:46;;;;;;;;;12.25;10.00;;;;;;;;5102186;27;61753;-72
2023/04/20 10:24:12;;;;;;;;;10.75;7.25;;;;;;;;5123674;27;62006;-72
2023/04/20 10:26:41;;;;;;;;;6.50;3.25;;;;;;;;5123247;27;61788;-72
2023/04/20 10:29:07;;;;;;;;;7.25;6.00;;;;;;;;5123205;27;61916;-72
2023/04/20 10:31:39;;;;;;;;;9.75;8.50;;;;;;;;5123367;27;62087;-73
2023/04/20 10:34:05;;;;;;;;;9.25;7.50;;;;;;;;5123594;27;61912;-72
2023/04/20 10:36:35;;;;;;;;;9.25;8.00;;;;;;;;5123699;27;61836;-73
2023/04/20 10:39:12;;;;;;;;;8.25;8.00;;;;;;;;5123243;27;61801;-72
2023/04/20 10:41:37;;;;;;;;;8.00;7.75;;;;;;;;5121540;27;62083;-71
2023/04/20 10:44:06;;;;;;;;;16.75;10.75;;;;;;;;5122939;27;61936;-72
2023/04/20 10:46:32;;;;;;;;;8.75;8.00;;;;;;;;5122724;27;61773;-72
2023/04/20 10:49:00;;;;;;;;;8.25;5.75;;;;;;;;5122944;27;62565;-72
2023/04/20 10:51:25;;;;;;;;;11.00;6.50;;;;;;;;5121895;27;61819;-72
2023/04/20 10:53:57;;;;;;;;;13.25;9.75;;;;;;;;5121470;27;62180;-71
2023/04/20 10:56:22;;;;;;;;;14.50;8.00;;;;;;;;5083694;27;61858;-72
2023/04/20 10:58:48;;;;;;;;;8.75;8.00;;;;;;;;5100624;27;63492;-72
2023/04/20 11:01:13;;;;;;;;;13.50;11.75;;;;;;;;5102939;27;61822;-72
2023/04/20 11:03:38;;;;;;;;;12.00;10.75;;;;;;;;5102374;27;62017;-71
2023/04/20 11:06:04;;;;;;;;;9.00;9.00;;;;;;;;5102794;27;61866;-72
2023/04/20 11:08:42;;;;;;;;;11.25;8.75;;;;;;;;5101881;27;62768;-72
2023/04/20 11:11:20;;;;;;;;;8.25;8.00;;;;;;;;5100500;27;61842;-72
2023/04/20 11:13:47;;;;;;;;;8.25;8.25;;;;;;;;5101425;27;62176;-72
2023/04/20 11:16:12;;;;;;;;;11.75;9.75;;;;;;;;5100507;27;61743;-73
2023/04/20 11:18:53;;;;;;;;;13.50;12.50;;;;;;;;5101221;27;62296;-73
2023/04/20 11:21:20;;;;;;;;;16.00;10.00;;;;;;;;5102023;27;61759;-72
2023/04/20 11:23:45;;;;;;;;;10.75;9.25;;;;;;;;5100036;27;61850;-73
2023/04/20 11:26:10;;;;;;;;;11.00;7.50;;;;;;;;5110290;27;62090;-73
2023/04/20 11:28:36;;;;;;;;;10.00;9.00;;;;;;;;5102589;27;61790;-74
2023/04/20 11:31:01;;;;;;;;;15.00;9.50;;;;;;;;5118244;27;61695;-73
2023/04/20 11:33:27;;;;;;;;;15.00;12.00;;;;;;;;5118719;27;61734;-73
2023/04/20 11:35:54;;;;;;;;;12.75;12.75;;;;;;;;5112219;27;61726;-73
2023/04/20 11:38:32;;;;;;;;;11.50;11.00;;;;;;;;5102826;27;63521;-74
2023/04/20 11:41:03;;;;;;;;;10.25;6.25;;;;;;;;5103622;27;61833;-74
2023/04/20 11:43:28;;;;;;;;;12.25;10.50;;;;;;;;5125717;27;61778;-73
2023/04/20 11:45:53;;;;;;;;;12.00;11.00;;;;;;;;5099550;27;61974;-74
2023/04/20 11:48:19;;;;;;;;;14.50;13.00;;;;;;;;5097500;27;62097;-74
2023/04/20 11:50:44;;;;;;;;;14.25;12.25;;;;;;;;5102887;27;61978;-74
2023/04/20 11:53:13;;;;;;;;;13.00;9.25;;;;;;;;5107338;27;61856;-74
2023/04/20 11:55:38;;;;;;;;;19.00;10.75;;;;;;;;5115651;27;61800;-74
2023/04/20 11:58:04;;;;;;;;;11.75;11.75;;;;;;;;5103506;27;62199;-74
2023/04/20 12:00:29;;;;;;;;;16.00;10.00;;;;;;;;5104028;27;61870;-73
2023/04/20 12:02:54;;;;;;;;;12.50;10.00;;;;;;;;5106736;27;61861;-73
2023/04/20 12:05:20;;;;;;;;;16.50;12.00;;;;;;;;5103384;27;62363;-74
2023/04/20 12:07:45;;;;;;;;;7.75;7.75;;;;;;;;5103760;27;63576;-74
2023/04/20 12:10:10;;;;;;;;;11.25;9.75;;;;;;;;5102529;27;62047;-74
2023/04/20 12:12:37;;;;;;;;;11.50;11.50;;;;;;;;5104029;27;61852;-74
2023/04/20 12:15:02;;;;;;;;;13.25;11.50;;;;;;;;5104779;27;61907;-74
2023/04/20 12:17:27;;;;;;;;;11.50;9.00;;;;;;;;5103746;27;62483;-73
2023/04/20 12:19:53;;;;;;;;;19.00;11.25;;;;;;;;5103316;27;61845;-73
2023/04/20 12:22:18;;;;;;;;;11.75;10.75;;;;;;;;5101602;27;61891;-73
2023/04/20 12:24:44;;;;;;;;;13.25;10.75;;;;;;;;5104159;27;61742;-73
2023/04/20 12:27:09;;;;;;;;;14.50;11.25;;;;;;;;5102598;27;62697;-73
2023/04/20 12:29:35;;;;;;;;;13.75;13.75;;;;;;;;5103762;27;61845;-73
2023/04/20 12:32:00;;;;;;;;;13.00;10.25;;;;;;;;5103630;27;61814;-73
2023/04/20 12:34:25;;;;;;;;;13.00;12.25;;;;;;;;5124397;27;61684;-73
2023/04/20 12:36:50;;;;;;;;;19.00;14.00;;;;;;;;5111296;27;61863;-73
2023/04/20 12:39:16;;;;;;;;;14.50;13.00;;;;;;;;5102565;27;61855;-73
2023/04/20 12:41:41;;;;;;;;;11.75;11.75;;;;;;;;5103997;27;62092;-73
2023/04/20 12:44:06;;;;;;;;;14.50;12.00;;;;;;;;5101567;27;61777;-73
2023/04/20 12:46:32;;;;;;;;;15.25;11.50;;;;;;;;5102037;27;62128;-73
2023/04/20 12:48:57;;;;;;;;;14.00;12.00;;;;;;;;5100131;27;61773;-73
2023/04/20 12:51:22;;;;;;;;;14.75;13.25;;;;;;;;5101696;27;62011;-73
2023/04/20 12:53:47;;;;;;;;;10.75;10.00;;;;;;;;5101415;27;61798;-73
2023/04/20 12:56:14;;;;;;;;;13.25;11.50;;;;;;;;5100159;27;63247;-73
2023/04/20 12:58:39;;;;;;;;;14.75;11.25;;;;;;;;5099918;27;62122;-73
2023/04/20 13:01:04;;;;;;;;;18.00;15.25;;;;;;;;5100946;27;61901;-73
2023/04/20 13:03:30;;;;;;;;;14.50;14.25;;;;;;;;5101613;27;61900;-73
2023/04/20 13:05:55;;;;;;;;;18.75;15.75;;;;;;;;5101020;27;61905;-73
2023/04/20 13:08:22;;;;;;;;;14.75;14.00;;;;;;;;5094201;27;62133;-73
2023/04/20 13:10:48;;;;;;;;;1.75;0.00;;;;;;;;5099075;27;62214;-73
2023/04/20 13:13:13;;;;;;;;;12.25;12.00;;;;;;;;5103853;27;61705;-73
2023/04/20 13:15:38;;;;;;;;;12.50;10.50;;;;;;;;5109047;27;62292;-73
2023/04/20 13:18:04;;;;;;;;;13.00;12.25;;;;;;;;5100269;27;61979;-73
2023/04/20 13:20:29;;;;;;;;;15.00;10.75;;;;;;;;5102064;27;61919;-73
2023/04/20 13:22:56;;;;;;;;;15.75;13.75;;;;;;;;5102679;27;61910;-73
2023/04/20 13:25:22;;;;;;;;;13.50;13.50;;;;;;;;5101807;27;61976;-73
2023/04/20 13:27:47;;;;;;;;;15.25;13.75;;;;;;;;5101351;27;62223;-73
2023/04/20 13:30:13;;;;;;;;;14.25;9.50;;;;;;;;5097239;27;61946;-73
2023/04/20 13:32:38;;;;;;;;;13.50;11.00;;;;;;;;5091876;27;61897;-73
2023/04/20 13:35:03;;;;;;;;;14.25;14.00;;;;;;;;5100988;27;61981;-73
2023/04/20 13:37:31;;;;;;;;;11.75;11.50;;;;;;;;5101233;27;61906;-73
2023/04/20 13:39:57;;;;;;;;;12.00;11.75;;;;;;;;5102318;27;61779;-73
2023/04/20 13:42:22;;;;;;;;;17.00;14.75;;;;;;;;5096718;27;61852;-75
2023/04/20 13:44:47;;;;;;;;;14.25;12.75;;;;;;;;5101866;27;63073;-75
2023/04/20 13:47:16;;;;;;;;;16.50;15.50;;;;;;;;5102106;27;61782;-73
2023/04/20 13:49:41;;;;;;;;;15.25;12.00;;;;;;;;5102397;27;61807;-73
2023/04/20 13:52:06;;;;;;;;;16.25;12.00;;;;;;;;5103249;27;61707;-73
2023/04/20 13:54:31;;;;;;;;;13.00;10.50;;;;;;;;5101916;27;62692;-75
2023/04/20 13:56:57;;;;;;;;;12.00;11.00;;;;;;;;5102231;27;61840;-73
2023/04/20 13:59:22;;;;;;;;;13.25;11.25;;;;;;;;5103014;27;61975;-73
2023/04/20 14:01:47;;;;;;;;;17.25;12.50;;;;;;;;5100945;27;61795;-73
2023/04/20 14:04:15;;;;;;;;;13.50;12.75;;;;;;;;5100999;27;62432;-72
2023/04/20 14:06:40;;;;;;;;;16.00;13.25;;;;;;;;5102979;27;62195;-72
2023/04/20 14:09:06;;;;;;;;;13.50;12.00;;;;;;;;5106415;27;62580;-72
2023/04/20 14:11:31;;;;;;;;;15.75;13.75;;;;;;;;5097692;27;62401;-73
2023/04/20 14:13:57;;;;;;;;;16.25;14.00;;;;;;;;5098191;27;63848;-73
2023/04/20 14:16:23;;;;;;;;;13.25;11.25;;;;;;;;5105860;27;61832;-72
2023/04/20 14:18:49;;;;;;;;;17.50;14.00;;;;;;;;5100582;27;61815;-72
2023/04/20 14:21:14;;;;;;;;;14.50;12.75;;;;;;;;5101738;27;62523;-72
2023/04/20 14:23:40;;;;;;;;;18.50;12.75;;;;;;;;5092537;27;63004;-75